sensor_id;sensor_type;location;lat;lon;timestamp;pressure;altitude;pressure_sealevel;temperature;humidity
42601;BME280;28229;48.856;9.088;2023-11-21T00:01:41;97350.69;;;6.95;100.00
42601;BME280;28229;48.856;9.088;2023-11-21T00:04:07;97349.06;;;7.00;100.00
42601;BME280;28229;48.856;9.088;2023-11-21T00:06:34;97352.13;;;6.97;100.00
42601;BME280;28229;48.856;9.088;2023-11-21T00:09:00;97348.53;;;6.92;100.00
42601;BME280;28229;48.856;9.088;2023-11-21T00:11:26;97349.28;;;6.99;100.00
42601;BME280;28229;48.856;9.088;2023-11-21T00:13:54;97348.84;;;7.02;100.00
42601;BME280;28229;48.856;9.088;2023-11-21T00:16:21;97343.41;;;7.03;100.00
42601;BME280;28229;48.856;9.088;2023-11-21T00:18:48;97340.00;;;7.03;100.00
42601;BME280;28229;48.856;9.088;2023-11-21T00:21:14;97347.44;;;7.06;100.00
42601;BME280;28229;48.856;9.088;2023-11-21T00:23:40;97340.59;;;7.05;100.00
42601;BME280;28229;48.856;9.088;2023-11-21T00:26:07;97334.97;;;7.08;100.00
42601;BME280;28229;48.856;9.088;2023-11-21T00:28:33;97335.34;;;7.12;100.00
42601;BME280;28229;48.856;9.088;2023-11-21T00:31:02;97335.97;;;7.07;100.00
42601;BME280;28229;48.856;9.088;2023-11-21T00:33:28;97325.28;;;7.09;100.00
42601;BME280;28229;48.856;9.088;2023-11-21T00:35:54;97335.97;;;7.07;100.00
42601;BME280;28229;48.856;9.088;2023-11-21T00:38:20;97330.53;;;7.02;100.00
42601;BME280;28229;48.856;9.088;2023-11-21T00:40:46;97334.53;;;7.11;100.00
42601;BME280;28229;48.856;9.088;2023-11-21T00:43:12;97327.69;;;7.10;100.00
42601;BME280;28229;48.856;9.088;2023-11-21T00:45:39;97336.97;;;7.06;100.00
42601;BME280;28229;48.856;9.088;2023-11-21T00:48:06;97339.75;;;7.11;100.00
42601;BME280;28229;48.856;9.088;2023-11-21T00:50:34;97335.75;;;7.09;100.00
42601;BME280;28229;48.856;9.088;2023-11-21T00:53:00;97332.06;;;7.16;100.00
42601;BME280;28229;48.856;9.088;2023-11-21T00:55:27;97346.19;;;7.15;100.00
42601;BME280;28229;48.856;9.088;2023-11-21T00:57:54;97342.97;;;7.13;100.00
42601;BME280;28229;48.856;9.088;2023-11-21T01:00:20;97344.97;;;7.11;100.00
42601;BME280;28229;48.856;9.088;2023-11-21T01:02:46;97340.19;;;7.08;100.00
42601;BME280;28229;48.856;9.088;2023-11-21T01:05:14;97342.59;;;7.10;100.00
42601;BME280;28229;48.856;9.088;2023-11-21T01:07:40;97337.75;;;7.13;100.00
42601;BME280;28229;48.856;9.088;2023-11-21T01:10:07;97339.50;;;7.19;100.00
42601;BME280;28229;48.856;9.088;2023-11-21T01:12:35;97337.28;;;7.23;100.00
42601;BME280;28229;48.856;9.088;2023-11-21T01:15:06;97335.91;;;7.20;100.00
42601;BME280;28229;48.856;9.088;2023-11-21T01:17:35;97330.50;;;7.15;100.00
42601;BME280;28229;48.856;9.088;2023-11-21T01:20:02;97336.31;;;7.17;100.00
42601;BME280;28229;48.856;9.088;2023-11-21T01:22:29;97340.97;;;7.15;100.00
42601;BME280;28229;48.856;9.088;2023-11-21T01:24:55;97329.28;;;7.11;100.00
42601;BME280;28229;48.856;9.088;2023-11-21T01:27:21;97330.53;;;7.09;100.00
42601;BME280;28229;48.856;9.088;2023-11-21T01:29:48;97338.16;;;7.10;100.00
42601;BME280;28229;48.856;9.088;2023-11-21T01:32:15;97326.09;;;7.09;100.00
42601;BME280;28229;48.856;9.088;2023-11-21T01:34:42;97334.53;;;7.11;100.00
42601;BME280;28229;48.856;9.088;2023-11-21T01:37:08;97335.31;;;7.18;100.00
42601;BME280;28229;48.856;9.088;2023-11-21T01:39:34;97330.66;;;7.20;100.00
42601;BME280;28229;48.856;9.088;2023-11-21T01:42:01;97328.47;;;7.17;100.00
42601;BME280;28229;48.856;9.088;2023-11-21T01:44:27;97334.50;;;7.18;100.00
42601;BME280;28229;48.856;9.088;2023-11-21T01:46:53;97326.06;;;7.16;100.00
42601;BME280;28229;48.856;9.088;2023-11-21T01:49:20;97334.53;;;7.11;100.00
42601;BME280;28229;48.856;9.088;2023-11-21T01:51:48;97328.84;;;7.21;100.00
42601;BME280;28229;48.856;9.088;2023-11-21T01:54:16;97328.44;;;7.24;100.00
42601;BME280;28229;48.856;9.088;2023-11-21T01:56:46;97325.22;;;7.22;100.00
42601;BME280;28229;48.856;9.088;2023-11-21T01:59:17;97317.31;;;7.29;100.00
42601;BME280;28229;48.856;9.088;2023-11-21T02:01:44;97332.03;;;7.23;100.00
42601;BME280;28229;48.856;9.088;2023-11-21T02:04:10;97326.63;;;7.18;100.00
42601;BME280;28229;48.856;9.088;2023-11-21T02:06:36;97331.66;;;7.19;100.00
42601;BME280;28229;48.856;9.088;2023-11-21T02:09:02;97327.88;;;7.15;100.00
42601;BME280;28229;48.856;9.088;2023-11-21T02:11:30;97327.88;;;7.15;100.00
42601;BME280;28229;48.856;9.088;2023-11-21T02:13:59;97331.50;;;7.14;100.00
42601;BME280;28229;48.856;9.088;2023-11-21T02:16:28;97327.22;;;7.20;100.00
42601;BME280;28229;48.856;9.088;2023-11-21T02:18:57;97329.63;;;7.21;100.00
42601;BME280;28229;48.856;9.088;2023-11-21T02:21:25;97331.25;;;7.22;100.00
42601;BME280;28229;48.856;9.088;2023-11-21T02:23:51;97328.06;;;7.20;100.00
42601;BME280;28229;48.856;9.088;2023-11-21T02:26:17;97327.03;;;7.21;100.00
42601;BME280;28229;48.856;9.088;2023-11-21T02:28:46;97321.56;;;7.30;100.00
42601;BME280;28229;48.856;9.088;2023-11-21T02:31:14;97328.00;;;7.27;100.00
42601;BME280;28229;48.856;9.088;2023-11-21T02:33:40;97325.63;;;7.26;100.00
42601;BME280;28229;48.856;9.088;2023-11-21T02:36:06;97321.59;;;7.23;100.00
42601;BME280;28229;48.856;9.088;2023-11-21T02:38:32;97317.59;;;7.20;100.00
42601;BME280;28229;48.856;9.088;2023-11-21T02:40:58;97318.34;;;7.28;100.00
42601;BME280;28229;48.856;9.088;2023-11-21T02:43:27;97315.72;;;7.28;100.00
42601;BME280;28229;48.856;9.088;2023-11-21T02:45:54;97322.38;;;7.23;100.00
42601;BME280;28229;48.856;9.088;2023-11-21T02:48:20;97324.19;;;7.23;100.00
42601;BME280;28229;48.856;9.088;2023-11-21T02:50:46;97317.59;;;7.20;100.00
42601;BME280;28229;48.856;9.088;2023-11-21T02:53:14;97312.00;;;7.10;100.00
42601;BME280;28229;48.856;9.088;2023-11-21T02:55:41;97313.19;;;7.14;100.00
42601;BME280;28229;48.856;9.088;2023-11-21T02:58:08;97311.59;;;7.13;100.00
42601;BME280;28229;48.856;9.088;2023-11-21T03:00:34;97309.81;;;7.07;100.00
42601;BME280;28229;48.856;9.088;2023-11-21T03:03:00;97304.75;;;7.12;100.00
42601;BME280;28229;48.856;9.088;2023-11-21T03:05:27;97316.81;;;7.13;100.00
42601;BME280;28229;48.856;9.088;2023-11-21T03:07:54;97308.81;;;7.08;100.00
42601;BME280;28229;48.856;9.088;2023-11-21T03:10:21;97316.47;;;7.03;100.00
42601;BME280;28229;48.856;9.088;2023-11-21T03:12:47;97314.84;;;7.02;100.00
42601;BME280;28229;48.856;9.088;2023-11-21T03:15:13;97314.06;;;7.01;100.00
42601;BME280;28229;48.856;9.088;2023-11-21T03:17:40;97317.25;;;7.03;100.00
42601;BME280;28229;48.856;9.088;2023-11-21T03:20:06;97314.84;;;7.02;100.00
42601;BME280;28229;48.856;9.088;2023-11-21T03:22:37;97320.94;;;6.96;100.00
42601;BME280;28229;48.856;9.088;2023-11-21T03:25:04;97323.13;;;6.99;100.00
42601;BME280;28229;48.856;9.088;2023-11-21T03:27:32;97324.50;;;7.08;100.00
42601;BME280;28229;48.856;9.088;2023-11-21T03:29:58;97319.25;;;7.08;100.00
42601;BME280;28229;48.856;9.088;2023-11-21T03:32:24;97324.72;;;7.00;100.00
42601;BME280;28229;48.856;9.088;2023-11-21T03:34:57;97325.75;;;6.99;100.00
42601;BME280;28229;48.856;9.088;2023-11-21T03:37:24;97321.88;;;7.08;100.00
42601;BME280;28229;48.856;9.088;2023-11-21T03:39:57;97323.06;;;7.12;100.00
42601;BME280;28229;48.856;9.088;2023-11-21T03:42:23;97326.84;;;7.16;100.00
42601;BME280;28229;48.856;9.088;2023-11-21T03:44:51;97336.50;;;7.22;100.00
42601;BME280;28229;48.856;9.088;2023-11-21T03:47:18;97337.06;;;7.24;100.00
42601;BME280;28229;48.856;9.088;2023-11-21T03:49:45;97338.06;;;7.23;100.00
42601;BME280;28229;48.856;9.088;2023-11-21T03:52:14;97337.47;;;7.28;100.00
42601;BME280;28229;48.856;9.088;2023-11-21T03:54:40;97334.88;;;7.21;100.00
42601;BME280;28229;48.856;9.088;2023-11-21T03:57:08;97330.69;;;7.14;100.00
42601;BME280;28229;48.856;9.088;2023-11-21T03:59:36;97336.94;;;7.13;100.00
42601;BME280;28229;48.856;9.088;2023-11-21T04:02:06;97343.00;;;7.07;100.00
42601;BME280;28229;48.856;9.088;2023-11-21T04:04:34;97347.38;;;7.13;100.00
42601;BME280;28229;48.856;9.088;2023-11-21T04:07:00;97339.75;;;7.11;100.00
42601;BME280;28229;48.856;9.088;2023-11-21T04:09:26;97343.81;;;7.07;100.00
42601;BME280;28229;48.856;9.088;2023-11-21T04:11:53;97349.63;;;7.09;100.00
42601;BME280;28229;48.856;9.088;2023-11-21T04:14:19;97345.25;;;7.03;100.00
42601;BME280;28229;48.856;9.088;2023-11-21T04:16:46;97340.19;;;7.08;100.00
42601;BME280;28229;48.856;9.088;2023-11-21T04:19:12;97348.63;;;7.10;100.00
42601;BME280;28229;48.856;9.088;2023-11-21T04:21:41;97347.84;;;7.03;100.00
42601;BME280;28229;48.856;9.088;2023-11-21T04:24:07;97340.81;;;6.97;100.00
42601;BME280;28229;48.856;9.088;2023-11-21T04:26:33;97349.88;;;7.01;100.00
42601;BME280;28229;48.856;9.088;2023-11-21T04:28:59;97349.06;;;7.00;100.00
42601;BME280;28229;48.856;9.088;2023-11-21T04:31:25;97350.50;;;6.96;100.00
42601;BME280;28229;48.856;9.088;2023-11-21T04:33:52;97347.09;;;6.96;100.00
42601;BME280;28229;48.856;9.088;2023-11-21T04:36:18;97346.50;;;6.94;100.00
42601;BME280;28229;48.856;9.088;2023-11-21T04:38:44;97350.28;;;6.98;100.00
42601;BME280;28229;48.856;9.088;2023-11-21T04:41:12;97347.09;;;6.96;100.00
42601;BME280;28229;48.856;9.088;2023-11-21T04:43:38;97351.91;;;6.99;100.00
42601;BME280;28229;48.856;9.088;2023-11-21T04:46:05;97348.09;;;6.95;100.00
42601;BME280;28229;48.856;9.088;2023-11-21T04:48:31;97349.13;;;6.87;100.00
42601;BME280;28229;48.856;9.088;2023-11-21T04:50:57;97347.91;;;6.90;100.00
42601;BME280;28229;48.856;9.088;2023-11-21T04:53:23;97354.53;;;6.92;100.00
42601;BME280;28229;48.856;9.088;2023-11-21T04:55:49;97343.13;;;6.80;100.00
42601;BME280;28229;48.856;9.088;2023-11-21T04:58:15;97350.19;;;6.73;100.00
42601;BME280;28229;48.856;9.088;2023-11-21T05:00:41;97349.56;;;6.77;100.00
42601;BME280;28229;48.856;9.088;2023-11-21T05:03:08;97352.00;;;6.72;100.00
42601;BME280;28229;48.856;9.088;2023-11-21T05:05:34;97347.56;;;6.79;100.00
42601;BME280;28229;48.856;9.088;2023-11-21T05:08:00;97349.59;;;6.71;100.00
42601;BME280;28229;48.856;9.088;2023-11-21T05:10:27;97343.13;;;6.73;100.00
42601;BME280;28229;48.856;9.088;2023-11-21T05:12:53;97347.97;;;6.70;100.00
42601;BME280;28229;48.856;9.088;2023-11-21T05:15:21;97348.81;;;6.63;100.00
42601;BME280;28229;48.856;9.088;2023-11-21T05:17:47;97356.88;;;6.62;100.00
42601;BME280;28229;48.856;9.088;2023-11-21T05:20:18;97361.31;;;6.55;100.00
42601;BME280;28229;48.856;9.088;2023-11-21T05:22:49;97367.97;;;6.51;100.00
42601;BME280;28229;48.856;9.088;2023-11-21T05:25:16;97378.81;;;6.47;100.00
42601;BME280;28229;48.856;9.088;2023-11-21T05:27:46;97366.53;;;6.48;100.00
42601;BME280;28229;48.856;9.088;2023-11-21T05:30:13;97376.00;;;6.42;100.00
42601;BME280;28229;48.856;9.088;2023-11-21T05:32:40;97380.22;;;6.43;100.00
42601;BME280;28229;48.856;9.088;2023-11-21T05:35:09;97384.25;;;6.46;100.00
42601;BME280;28229;48.856;9.088;2023-11-21T05:37:40;97379.66;;;6.35;100.00
42601;BME280;28229;48.856;9.088;2023-11-21T05:40:07;97391.88;;;6.34;100.00
42601;BME280;28229;48.856;9.088;2023-11-21T05:42:41;97387.88;;;6.38;100.00
42601;BME280;28229;48.856;9.088;2023-11-21T05:45:17;97391.09;;;6.40;100.00
42601;BME280;28229;48.856;9.088;2023-11-21T05:47:54;97395.53;;;6.33;100.00
42601;BME280;28229;48.856;9.088;2023-11-21T05:50:24;97387.09;;;6.31;100.00
42601;BME280;28229;48.856;9.088;2023-11-21T05:52:51;97393.91;;;6.32;100.00
42601;BME280;28229;48.856;9.088;2023-11-21T05:55:17;97395.91;;;6.37;100.00
42601;BME280;28229;48.856;9.088;2023-11-21T05:57:55;97398.94;;;6.40;100.00
42601;BME280;28229;48.856;9.088;2023-11-21T06:00:21;97398.94;;;6.40;100.00
42601;BME280;28229;48.856;9.088;2023-11-21T06:02:52;97405.34;;;6.38;100.00
42601;BME280;28229;48.856;9.088;2023-11-21T06:05:23;97399.91;;;6.39;100.00
42601;BME280;28229;48.856;9.088;2023-11-21T06:07:51;97402.34;;;6.34;100.00
42601;BME280;28229;48.856;9.088;2023-11-21T06:10:20;97402.94;;;6.36;100.00
42601;BME280;28229;48.856;9.088;2023-11-21T06:12:47;97406.16;;;6.32;100.00
42601;BME280;28229;48.856;9.088;2023-11-21T06:15:13;97416.81;;;6.37;100.00
42601;BME280;28229;48.856;9.088;2023-11-21T06:17:40;97416.41;;;6.33;100.00
42601;BME280;28229;48.856;9.088;2023-11-21T06:20:09;97412.38;;;6.37;100.00
42601;BME280;28229;48.856;9.088;2023-11-21T06:22:40;97417.63;;;6.37;100.00
42601;BME280;28229;48.856;9.088;2023-11-21T06:25:07;97420.22;;;6.37;100.00
42601;BME280;28229;48.856;9.088;2023-11-21T06:27:37;97414.81;;;6.32;100.00
42601;BME280;28229;48.856;9.088;2023-11-21T06:30:06;97425.25;;;6.32;100.00
42601;BME280;28229;48.856;9.088;2023-11-21T06:32:36;97418.84;;;6.35;100.00
42601;BME280;28229;48.856;9.088;2023-11-21T06:35:10;97426.25;;;6.38;100.00
42601;BME280;28229;48.856;9.088;2023-11-21T06:37:38;97427.25;;;6.30;100.00
42601;BME280;28229;48.856;9.088;2023-11-21T06:40:05;97424.44;;;6.25;100.00
42601;BME280;28229;48.856;9.088;2023-11-21T07:04:28;97461.41;;;6.62;100.00
42601;BME280;28229;48.856;9.088;2023-11-21T07:07:38;97463.44;;;6.60;100.00
42601;BME280;28229;48.856;9.088;2023-11-21T07:10:18;97471.47;;;6.58;100.00
42601;BME280;28229;48.856;9.088;2023-11-21T07:12:44;97467.22;;;6.57;100.00
42601;BME280;28229;48.856;9.088;2023-11-21T07:15:12;97464.66;;;6.51;100.00
42601;BME280;28229;48.856;9.088;2023-11-21T07:17:38;97468.66;;;6.46;100.00
42601;BME280;28229;48.856;9.088;2023-11-21T07:20:09;97474.47;;;6.48;100.00
42601;BME280;28229;48.856;9.088;2023-11-21T07:29:47;97490.78;;;6.51;100.00
42601;BME280;28229;48.856;9.088;2023-11-21T07:32:43;97495.78;;;6.59;100.00
42601;BME280;28229;48.856;9.088;2023-11-21T07:35:10;97498.00;;;6.62;100.00
42601;BME280;28229;48.856;9.088;2023-11-21T07:37:41;97494.59;;;6.61;100.00
42601;BME280;28229;48.856;9.088;2023-11-21T07:40:19;97501.22;;;6.64;100.00
42601;BME280;28229;48.856;9.088;2023-11-21T07:48:26;97508.03;;;6.92;100.00
42601;BME280;28229;48.856;9.088;2023-11-21T07:54:41;97503.59;;;6.99;100.00
42601;BME280;28229;48.856;9.088;2023-11-21T07:57:19;97513.22;;;7.05;100.00
42601;BME280;28229;48.856;9.088;2023-11-21T07:59:45;97516.22;;;7.15;100.00
42601;BME280;28229;48.856;9.088;2023-11-21T08:08:00;97526.44;;;7.37;100.00
42601;BME280;28229;48.856;9.088;2023-11-21T08:10:27;97520.16;;;7.44;100.00
42601;BME280;28229;48.856;9.088;2023-11-21T08:12:53;97521.75;;;7.46;100.00
42601;BME280;28229;48.856;9.088;2023-11-21T08:15:24;97521.75;;;7.52;100.00
42601;BME280;28229;48.856;9.088;2023-11-21T08:17:55;97522.75;;;7.51;100.00
42601;BME280;28229;48.856;9.088;2023-11-21T08:20:26;97525.56;;;7.56;100.00
42601;BME280;28229;48.856;9.088;2023-11-21T08:22:54;97527.09;;;7.71;100.00
42601;BME280;28229;48.856;9.088;2023-11-21T08:25:25;97530.41;;;7.91;100.00
42601;BME280;28229;48.856;9.088;2023-11-21T08:27:51;97534.31;;;8.14;100.00
42601;BME280;28229;48.856;9.088;2023-11-21T08:30:17;97532.66;;;8.19;100.00
42601;BME280;28229;48.856;9.088;2023-11-21T08:32:45;97536.81;;;8.34;100.00
42601;BME280;28229;48.856;9.088;2023-11-21T08:35:11;97540.00;;;8.43;100.00
42601;BME280;28229;48.856;9.088;2023-11-21T08:37:39;97544.47;;;8.35;100.00
42601;BME280;28229;48.856;9.088;2023-11-21T08:40:09;97543.69;;;8.28;100.00
42601;BME280;28229;48.856;9.088;2023-11-21T08:48:49;97539.38;;;8.09;100.00
42601;BME280;28229;48.856;9.088;2023-11-21T08:54:37;97554.34;;;8.01;100.00
42601;BME280;28229;48.856;9.088;2023-11-21T08:57:37;97556.38;;;7.99;100.00
42601;BME280;28229;48.856;9.088;2023-11-21T09:00:04;97555.53;;;8.06;100.00
42601;BME280;28229;48.856;9.088;2023-11-21T09:45:01;97600.91;;;7.99;100.00
42601;BME280;28229;48.856;9.088;2023-11-21T09:47:40;97597.03;;;8.02;100.00
42601;BME280;28229;48.856;9.088;2023-11-21T09:50:06;97595.66;;;7.99;100.00
42601;BME280;28229;48.856;9.088;2023-11-21T09:52:42;97603.53;;;7.99;100.00
42601;BME280;28229;48.856;9.088;2023-11-21T09:55:28;97602.09;;;8.04;100.00
42601;BME280;28229;48.856;9.088;2023-11-21T09:58:04;97603.13;;;7.96;100.00
42601;BME280;28229;48.856;9.088;2023-11-21T10:00:33;97599.06;;;8.00;100.00
42601;BME280;28229;48.856;9.088;2023-11-21T10:03:00;97593.44;;;7.96;100.00
42601;BME280;28229;48.856;9.088;2023-11-21T10:05:29;97602.13;;;7.97;100.00
42601;BME280;28229;48.856;9.088;2023-11-21T10:07:56;97605.72;;;8.03;100.00
42601;BME280;28229;48.856;9.088;2023-11-21T10:10:24;97616.00;;;8.04;100.00
42601;BME280;28229;48.856;9.088;2023-11-21T10:12:57;97607.50;;;8.09;100.00
42601;BME280;28229;48.856;9.088;2023-11-21T10:15:28;97612.34;;;8.12;100.00
42601;BME280;28229;48.856;9.088;2023-11-21T10:17:55;97611.91;;;8.15;100.00
42601;BME280;28229;48.856;9.088;2023-11-21T10:20:25;97612.72;;;8.15;100.00
42601;BME280;28229;48.856;9.088;2023-11-21T10:22:52;97609.88;;;8.17;100.00
42601;BME280;28229;48.856;9.088;2023-11-21T10:25:20;97609.81;;;8.30;100.00
42601;BME280;28229;48.856;9.088;2023-11-21T10:27:49;97598.88;;;8.40;100.00
42601;BME280;28229;48.856;9.088;2023-11-21T10:30:18;97607.16;;;8.44;100.00
42601;BME280;28229;48.856;9.088;2023-11-21T10:32:44;97607.31;;;8.49;100.00
42601;BME280;28229;48.856;9.088;2023-11-21T10:35:15;97608.75;;;8.45;100.00
42601;BME280;28229;48.856;9.088;2023-11-21T10:37:41;97611.75;;;8.48;100.00
42601;BME280;28229;48.856;9.088;2023-11-21T10:40:10;97610.53;;;8.51;100.00
42601;BME280;28229;48.856;9.088;2023-11-21T10:42:39;97614.16;;;8.50;100.00
42601;BME280;28229;48.856;9.088;2023-11-21T10:45:09;97616.84;;;8.36;100.00
42601;BME280;28229;48.856;9.088;2023-11-21T10:47:43;97617.03;;;8.42;100.00
42601;BME280;28229;48.856;9.088;2023-11-21T10:50:10;97618.03;;;8.41;100.00
42601;BME280;28229;48.856;9.088;2023-11-21T10:52:39;97620.06;;;8.38;100.00
42601;BME280;28229;48.856;9.088;2023-11-21T10:55:18;97617.44;;;8.38;100.00
42601;BME280;28229;48.856;9.088;2023-11-21T10:57:49;97617.81;;;8.49;100.00
42601;BME280;28229;48.856;9.088;2023-11-21T11:00:18;97614.34;;;8.55;100.00
42601;BME280;28229;48.856;9.088;2023-11-21T11:02:50;97614.59;;;8.47;100.00
42601;BME280;28229;48.856;9.088;2023-11-21T11:05:19;97621.44;;;8.48;100.00
42601;BME280;28229;48.856;9.088;2023-11-21T11:07:48;97616.78;;;8.50;100.00
42601;BME280;28229;48.856;9.088;2023-11-21T11:10:14;97615.31;;;8.61;100.00
42601;BME280;28229;48.856;9.088;2023-11-21T11:12:41;97620.06;;;8.77;100.00
42601;BME280;28229;48.856;9.088;2023-11-21T11:15:08;97616.78;;;8.82;100.00
42601;BME280;28229;48.856;9.088;2023-11-21T11:17:37;97623.56;;;8.89;100.00
42601;BME280;28229;48.856;9.088;2023-11-21T11:20:05;97619.75;;;9.10;100.00
42601;BME280;28229;48.856;9.088;2023-11-21T11:25:46;97621.94;;;9.39;100.00
42601;BME280;28229;48.856;9.088;2023-11-21T11:42:57;97625.41;;;10.43;98.99
42601;BME280;28229;48.856;9.088;2023-11-21T11:45:32;97625.94;;;10.34;99.17
42601;BME280;28229;48.856;9.088;2023-11-21T11:48:05;97628.63;;;10.27;100.00
42601;BME280;28229;48.856;9.088;2023-11-21T11:50:31;97632.09;;;10.09;100.00
42601;BME280;28229;48.856;9.088;2023-11-21T11:53:15;97630.50;;;9.89;100.00
42601;BME280;28229;48.856;9.088;2023-11-21T11:55:46;97635.91;;;9.76;100.00
42601;BME280;28229;48.856;9.088;2023-11-21T12:30:29;97638.69;;;9.63;100.00
42601;BME280;28229;48.856;9.088;2023-11-21T12:32:58;97635.59;;;9.66;100.00
42601;BME280;28229;48.856;9.088;2023-11-21T12:35:33;97642.63;;;9.72;100.00
42601;BME280;28229;48.856;9.088;2023-11-21T12:44:08;97646.91;;;10.03;100.00
42601;BME280;28229;48.856;9.088;2023-11-21T12:49:56;97660.69;;;9.43;100.00
42601;BME280;28229;48.856;9.088;2023-11-21T12:53:30;97664.91;;;8.94;100.00
42601;BME280;28229;48.856;9.088;2023-11-21T12:56:06;97662.81;;;8.77;100.00
42601;BME280;28229;48.856;9.088;2023-11-21T12:58:39;97660.53;;;8.56;100.00
42601;BME280;28229;48.856;9.088;2023-11-21T13:01:06;97655.66;;;8.60;100.00
42601;BME280;28229;48.856;9.088;2023-11-21T13:03:38;97662.59;;;8.41;100.00
42601;BME280;28229;48.856;9.088;2023-11-21T13:06:48;97662.78;;;8.39;100.00
42601;BME280;28229;48.856;9.088;2023-11-21T13:09:16;97661.03;;;8.33;100.00
42601;BME280;28229;48.856;9.088;2023-11-21T13:12:01;97671.47;;;8.39;100.00
42601;BME280;28229;48.856;9.088;2023-11-21T13:14:29;97661.78;;;8.47;100.00
42601;BME280;28229;48.856;9.088;2023-11-21T13:35:08;97695.69;;;8.28;100.00
42601;BME280;28229;48.856;9.088;2023-11-21T13:37:57;97694.25;;;8.32;100.00
42601;BME280;28229;48.856;9.088;2023-11-21T13:40:36;97692.09;;;8.29;100.00
42601;BME280;28229;48.856;9.088;2023-11-21T13:43:22;97692.91;;;8.23;100.00
42601;BME280;28229;48.856;9.088;2023-11-21T13:45:53;97693.28;;;8.27;100.00
42601;BME280;28229;48.856;9.088;2023-11-21T13:57:44;97706.16;;;8.42;100.00
42601;BME280;28229;48.856;9.088;2023-11-21T14:00:16;97712.22;;;8.42;100.00
42601;BME280;28229;48.856;9.088;2023-11-21T14:03:01;97716.19;;;8.58;100.00
42601;BME280;28229;48.856;9.088;2023-11-21T14:05:31;97719.38;;;8.60;100.00
42601;BME280;28229;48.856;9.088;2023-11-21T14:07:59;97712.53;;;8.59;100.00
42601;BME280;28229;48.856;9.088;2023-11-21T14:10:31;97713.38;;;8.53;100.00
42601;BME280;28229;48.856;9.088;2023-11-21T14:13:09;97724.88;;;8.52;100.00
42601;BME280;28229;48.856;9.088;2023-11-21T14:15:39;97731.91;;;8.58;100.00
42601;BME280;28229;48.856;9.088;2023-11-21T14:18:09;97728.50;;;8.57;100.00
42601;BME280;28229;48.856;9.088;2023-11-21T14:20:40;97734.31;;;8.60;100.00
42601;BME280;28229;48.856;9.088;2023-11-21T14:23:07;97737.94;;;8.58;100.00
42601;BME280;28229;48.856;9.088;2023-11-21T14:25:34;97741.25;;;8.47;100.00
42601;BME280;28229;48.856;9.088;2023-11-21T14:28:05;97736.59;;;8.49;100.00
42601;BME280;28229;48.856;9.088;2023-11-21T14:30:33;97734.81;;;8.43;100.00
42601;BME280;28229;48.856;9.088;2023-11-21T14:33:02;97744.06;;;8.46;100.00
42601;BME280;28229;48.856;9.088;2023-11-21T14:35:28;97744.66;;;8.48;100.00
42601;BME280;28229;48.856;9.088;2023-11-21T14:37:58;97742.03;;;8.48;100.00
42601;BME280;28229;48.856;9.088;2023-11-21T14:40:29;97745.69;;;8.47;100.00
42601;BME280;28229;48.856;9.088;2023-11-21T14:43:00;97756.16;;;8.47;100.00
42601;BME280;28229;48.856;9.088;2023-11-21T14:45:26;97751.34;;;8.44;100.00
42601;BME280;28229;48.856;9.088;2023-11-21T14:47:53;97759.19;;;8.44;100.00
42601;BME280;28229;48.856;9.088;2023-11-21T14:50:33;97762.19;;;8.41;100.00
42601;BME280;28229;48.856;9.088;2023-11-21T14:53:12;97767.50;;;8.27;100.00
42601;BME280;28229;48.856;9.088;2023-11-21T14:55:41;97769.88;;;8.29;100.00
42601;BME280;28229;48.856;9.088;2023-11-21T14:58:37;97765.47;;;8.29;100.00
42601;BME280;28229;48.856;9.088;2023-11-21T15:01:04;97769.09;;;8.28;100.00
42601;BME280;28229;48.856;9.088;2023-11-21T15:03:31;97777.19;;;8.20;100.00
42601;BME280;28229;48.856;9.088;2023-11-21T15:05:59;97782.78;;;8.30;100.00
42601;BME280;28229;48.856;9.088;2023-11-21T15:08:28;97790.44;;;8.32;100.00
42601;BME280;28229;48.856;9.088;2023-11-21T15:10:58;97791.69;;;8.29;100.00
42601;BME280;28229;48.856;9.088;2023-11-21T15:13:24;97794.09;;;8.24;100.00
42601;BME280;28229;48.856;9.088;2023-11-21T15:15:53;97798.31;;;8.25;100.00
42601;BME280;28229;48.856;9.088;2023-11-21T15:18:22;97810.03;;;8.23;100.00
42601;BME280;28229;48.856;9.088;2023-11-21T15:20:48;97807.41;;;8.16;100.00
42601;BME280;28229;48.856;9.088;2023-11-21T15:23:14;97813.88;;;8.20;100.00
42601;BME280;28229;48.856;9.088;2023-11-21T15:25:42;97809.22;;;8.22;100.00
42601;BME280;28229;48.856;9.088;2023-11-21T15:28:08;97817.69;;;8.24;100.00
42601;BME280;28229;48.856;9.088;2023-11-21T15:30:35;97813.88;;;8.20;100.00
42601;BME280;28229;48.856;9.088;2023-11-21T15:33:01;97816.66;;;8.25;100.00
42601;BME280;28229;48.856;9.088;2023-11-21T15:35:29;97818.50;;;8.25;100.00
42601;BME280;28229;48.856;9.088;2023-11-21T15:37:56;97821.75;;;8.20;100.00
42601;BME280;28229;48.856;9.088;2023-11-21T15:40:24;97820.72;;;8.14;100.00
42601;BME280;28229;48.856;9.088;2023-11-21T15:42:51;97832.44;;;8.12;100.00
42601;BME280;28229;48.856;9.088;2023-11-21T15:45:17;97829.22;;;7.96;100.00
42601;BME280;28229;48.856;9.088;2023-11-21T15:47:47;97826.78;;;7.95;100.00
42601;BME280;28229;48.856;9.088;2023-11-21T15:50:13;97833.66;;;8.03;100.00
42601;BME280;28229;48.856;9.088;2023-11-21T15:52:40;97835.88;;;8.06;100.00
42601;BME280;28229;48.856;9.088;2023-11-21T15:55:06;97840.91;;;8.00;100.00
42601;BME280;28229;48.856;9.088;2023-11-21T15:57:34;97841.31;;;7.97;100.00
42601;BME280;28229;48.856;9.088;2023-11-21T16:00:00;97841.09;;;7.92;100.00
42601;BME280;28229;48.856;9.088;2023-11-21T16:02:27;97849.16;;;7.97;100.00
42601;BME280;28229;48.856;9.088;2023-11-21T16:04:53;97844.72;;;7.98;100.00
42601;BME280;28229;48.856;9.088;2023-11-21T16:07:19;97850.16;;;7.96;100.00
42601;BME280;28229;48.856;9.088;2023-11-21T16:09:45;97855.00;;;7.93;100.00
42601;BME280;28229;48.856;9.088;2023-11-21T16:12:12;97853.00;;;7.88;100.00
42601;BME280;28229;48.856;9.088;2023-11-21T16:14:38;97859.22;;;7.87;100.00